sensor_id;sensor_type;location;lat;lon;timestamp;P1;durP1;ratioP1;P2;durP2;ratioP2
7587;SDS011;3835;48.850;8.938;2023-05-25T00:01:04;16.40;;;14.77;;
7587;SDS011;3835;48.850;8.938;2023-05-25T00:03:31;15.90;;;14.50;;
7587;SDS011;3835;48.850;8.938;2023-05-25T00:06:05;15.87;;;14.03;;
7587;SDS011;3835;48.850;8.938;2023-05-25T00:08:33;15.50;;;14.00;;
7587;SDS011;3835;48.850;8.938;2023-05-25T00:11:02;15.43;;;13.90;;
7587;SDS011;3835;48.850;8.938;2023-05-25T00:13:29;17.67;;;14.17;;
7587;SDS011;3835;48.850;8.938;2023-05-25T00:15:56;14.57;;;13.57;;
7587;SDS011;3835;48.850;8.938;2023-05-25T00:18:24;17.53;;;16.07;;
7587;SDS011;3835;48.850;8.938;2023-05-25T00:20:52;14.63;;;13.60;;
7587;SDS011;3835;48.850;8.938;2023-05-25T00:23:21;14.83;;;13.73;;
7587;SDS011;3835;48.850;8.938;2023-05-25T00:25:52;15.87;;;14.47;;
7587;SDS011;3835;48.850;8.938;2023-05-25T00:28:20;17.17;;;15.57;;
7587;SDS011;3835;48.850;8.938;2023-05-25T00:30:48;16.63;;;14.97;;
7587;SDS011;3835;48.850;8.938;2023-05-25T00:33:19;16.63;;;15.10;;
7587;SDS011;3835;48.850;8.938;2023-05-25T00:35:49;17.00;;;15.47;;
7587;SDS011;3835;48.850;8.938;2023-05-25T00:38:18;18.00;;;16.40;;
7587;SDS011;3835;48.850;8.938;2023-05-25T00:40:54;16.83;;;15.27;;
7587;SDS011;3835;48.850;8.938;2023-05-25T00:43:23;15.37;;;13.93;;
7587;SDS011;3835;48.850;8.938;2023-05-25T00:45:49;15.23;;;13.87;;
7587;SDS011;3835;48.850;8.938;2023-05-25T00:48:17;16.97;;;15.73;;
7587;SDS011;3835;48.850;8.938;2023-05-25T00:50:44;16.33;;;15.03;;
7587;SDS011;3835;48.850;8.938;2023-05-25T00:53:12;16.17;;;15.00;;
7587;SDS011;3835;48.850;8.938;2023-05-25T00:55:43;17.47;;;16.33;;
7587;SDS011;3835;48.850;8.938;2023-05-25T00:58:14;18.07;;;16.60;;
7587;SDS011;3835;48.850;8.938;2023-05-25T01:00:43;17.63;;;16.23;;
7587;SDS011;3835;48.850;8.938;2023-05-25T01:03:17;17.20;;;15.90;;
7587;SDS011;3835;48.850;8.938;2023-05-25T01:05:46;16.93;;;15.63;;
7587;SDS011;3835;48.850;8.938;2023-05-25T01:08:17;15.97;;;14.53;;
7587;SDS011;3835;48.850;8.938;2023-05-25T01:10:50;16.63;;;14.97;;
7587;SDS011;3835;48.850;8.938;2023-05-25T01:13:24;15.70;;;14.33;;
7587;SDS011;3835;48.850;8.938;2023-05-25T01:15:53;15.93;;;14.63;;
7587;SDS011;3835;48.850;8.938;2023-05-25T01:18:21;15.70;;;14.53;;
7587;SDS011;3835;48.850;8.938;2023-05-25T01:20:53;16.63;;;15.03;;
7587;SDS011;3835;48.850;8.938;2023-05-25T01:23:27;15.37;;;14.23;;
7587;SDS011;3835;48.850;8.938;2023-05-25T01:26:02;16.60;;;15.23;;
7587;SDS011;3835;48.850;8.938;2023-05-25T01:28:36;17.80;;;16.23;;
7587;SDS011;3835;48.850;8.938;2023-05-25T01:31:10;16.80;;;15.30;;
7587;SDS011;3835;48.850;8.938;2023-05-25T01:33:41;17.33;;;15.73;;
7587;SDS011;3835;48.850;8.938;2023-05-25T01:36:11;16.07;;;14.50;;
7587;SDS011;3835;48.850;8.938;2023-05-25T01:38:39;15.17;;;13.73;;
7587;SDS011;3835;48.850;8.938;2023-05-25T01:41:07;15.33;;;14.17;;
7587;SDS011;3835;48.850;8.938;2023-05-25T01:43:34;15.20;;;13.70;;
7587;SDS011;3835;48.850;8.938;2023-05-25T01:46:05;15.73;;;14.30;;
7587;SDS011;3835;48.850;8.938;2023-05-25T01:48:47;17.17;;;15.40;;
7587;SDS011;3835;48.850;8.938;2023-05-25T01:51:24;15.03;;;13.87;;
7587;SDS011;3835;48.850;8.938;2023-05-25T01:53:59;15.77;;;14.70;;
7587;SDS011;3835;48.850;8.938;2023-05-25T01:56:33;16.33;;;15.13;;
7587;SDS011;3835;48.850;8.938;2023-05-25T01:59:02;17.17;;;15.77;;
7587;SDS011;3835;48.850;8.938;2023-05-25T02:01:34;19.20;;;16.20;;
7587;SDS011;3835;48.850;8.938;2023-05-25T02:04:02;16.07;;;14.97;;
7587;SDS011;3835;48.850;8.938;2023-05-25T02:06:32;15.10;;;13.83;;
7587;SDS011;3835;48.850;8.938;2023-05-25T02:09:01;15.03;;;14.03;;
7587;SDS011;3835;48.850;8.938;2023-05-25T02:14:23;15.53;;;13.93;;
7587;SDS011;3835;48.850;8.938;2023-05-25T02:16:52;15.23;;;14.13;;
7587;SDS011;3835;48.850;8.938;2023-05-25T02:19:22;15.87;;;14.50;;
7587;SDS011;3835;48.850;8.938;2023-05-25T02:21:51;17.10;;;15.50;;
7587;SDS011;3835;48.850;8.938;2023-05-25T02:24:20;18.13;;;16.37;;
7587;SDS011;3835;48.850;8.938;2023-05-25T02:26:49;16.93;;;15.50;;
7587;SDS011;3835;48.850;8.938;2023-05-25T02:29:18;16.80;;;15.63;;
7587;SDS011;3835;48.850;8.938;2023-05-25T02:31:47;17.37;;;16.07;;
7587;SDS011;3835;48.850;8.938;2023-05-25T02:34:15;17.93;;;16.33;;
7587;SDS011;3835;48.850;8.938;2023-05-25T02:36:42;16.00;;;14.63;;
7587;SDS011;3835;48.850;8.938;2023-05-25T02:39:10;19.83;;;14.73;;
7587;SDS011;3835;48.850;8.938;2023-05-25T02:41:37;17.83;;;15.90;;
7587;SDS011;3835;48.850;8.938;2023-05-25T02:44:04;16.37;;;14.90;;
7587;SDS011;3835;48.850;8.938;2023-05-25T02:46:31;16.77;;;15.43;;
7587;SDS011;3835;48.850;8.938;2023-05-25T02:48:58;17.17;;;15.47;;
7587;SDS011;3835;48.850;8.938;2023-05-25T02:51:25;17.60;;;16.30;;
7587;SDS011;3835;48.850;8.938;2023-05-25T02:53:52;18.37;;;17.03;;
7587;SDS011;3835;48.850;8.938;2023-05-25T02:56:20;18.83;;;17.67;;
7587;SDS011;3835;48.850;8.938;2023-05-25T02:58:47;18.67;;;17.30;;
7587;SDS011;3835;48.850;8.938;2023-05-25T03:01:14;18.53;;;16.97;;
7587;SDS011;3835;48.850;8.938;2023-05-25T03:03:42;18.70;;;17.40;;
7587;SDS011;3835;48.850;8.938;2023-05-25T03:06:10;18.67;;;17.33;;
7587;SDS011;3835;48.850;8.938;2023-05-25T03:08:38;18.20;;;16.70;;
7587;SDS011;3835;48.850;8.938;2023-05-25T03:11:04;16.87;;;15.33;;
7587;SDS011;3835;48.850;8.938;2023-05-25T03:13:33;16.10;;;14.57;;
7587;SDS011;3835;48.850;8.938;2023-05-25T03:15:59;16.47;;;15.07;;
7587;SDS011;3835;48.850;8.938;2023-05-25T03:18:26;19.00;;;17.27;;
7587;SDS011;3835;48.850;8.938;2023-05-25T03:20:53;17.73;;;16.27;;
7587;SDS011;3835;48.850;8.938;2023-05-25T03:23:20;18.67;;;17.27;;
7587;SDS011;3835;48.850;8.938;2023-05-25T03:25:47;19.13;;;16.90;;
7587;SDS011;3835;48.850;8.938;2023-05-25T03:28:13;18.63;;;17.03;;
7587;SDS011;3835;48.850;8.938;2023-05-25T03:30:41;17.77;;;16.53;;
7587;SDS011;3835;48.850;8.938;2023-05-25T03:33:08;18.70;;;17.00;;
7587;SDS011;3835;48.850;8.938;2023-05-25T03:35:37;17.97;;;16.40;;
7587;SDS011;3835;48.850;8.938;2023-05-25T03:38:04;15.47;;;14.47;;
7587;SDS011;3835;48.850;8.938;2023-05-25T03:40:31;17.57;;;15.43;;
7587;SDS011;3835;48.850;8.938;2023-05-25T03:42:57;16.37;;;15.17;;
7587;SDS011;3835;48.850;8.938;2023-05-25T03:45:24;16.57;;;14.90;;
7587;SDS011;3835;48.850;8.938;2023-05-25T03:47:52;17.10;;;15.40;;
7587;SDS011;3835;48.850;8.938;2023-05-25T03:50:19;16.83;;;15.27;;
7587;SDS011;3835;48.850;8.938;2023-05-25T03:52:46;16.90;;;15.60;;
7587;SDS011;3835;48.850;8.938;2023-05-25T03:55:13;17.13;;;15.80;;
7587;SDS011;3835;48.850;8.938;2023-05-25T03:57:40;15.80;;;14.27;;
7587;SDS011;3835;48.850;8.938;2023-05-25T04:00:07;16.07;;;14.50;;
7587;SDS011;3835;48.850;8.938;2023-05-25T04:02:35;17.00;;;15.20;;
7587;SDS011;3835;48.850;8.938;2023-05-25T04:05:03;16.50;;;15.20;;
7587;SDS011;3835;48.850;8.938;2023-05-25T04:07:31;17.17;;;15.50;;
7587;SDS011;3835;48.850;8.938;2023-05-25T04:09:57;17.70;;;16.23;;
7587;SDS011;3835;48.850;8.938;2023-05-25T04:12:24;16.97;;;15.77;;
7587;SDS011;3835;48.850;8.938;2023-05-25T04:14:52;16.97;;;15.57;;
7587;SDS011;3835;48.850;8.938;2023-05-25T04:17:19;18.70;;;14.83;;
7587;SDS011;3835;48.850;8.938;2023-05-25T04:19:48;16.33;;;14.97;;
7587;SDS011;3835;48.850;8.938;2023-05-25T04:22:17;17.03;;;15.40;;
7587;SDS011;3835;48.850;8.938;2023-05-25T04:24:44;16.43;;;15.30;;
7587;SDS011;3835;48.850;8.938;2023-05-25T04:27:10;16.70;;;15.47;;
7587;SDS011;3835;48.850;8.938;2023-05-25T04:29:38;16.87;;;15.47;;
7587;SDS011;3835;48.850;8.938;2023-05-25T04:32:05;16.73;;;15.27;;
7587;SDS011;3835;48.850;8.938;2023-05-25T04:34:33;16.93;;;15.53;;
7587;SDS011;3835;48.850;8.938;2023-05-25T04:37:01;16.67;;;15.40;;
7587;SDS011;3835;48.850;8.938;2023-05-25T04:39:30;16.97;;;15.00;;
7587;SDS011;3835;48.850;8.938;2023-05-25T04:41:57;15.57;;;14.20;;
7587;SDS011;3835;48.850;8.938;2023-05-25T04:44:25;17.27;;;15.53;;
7587;SDS011;3835;48.850;8.938;2023-05-25T04:46:53;16.13;;;14.63;;
7587;SDS011;3835;48.850;8.938;2023-05-25T04:49:20;16.50;;;14.90;;
7587;SDS011;3835;48.850;8.938;2023-05-25T04:51:47;16.17;;;14.97;;
7587;SDS011;3835;48.850;8.938;2023-05-25T04:54:14;17.00;;;15.37;;
7587;SDS011;3835;48.850;8.938;2023-05-25T04:56:42;16.10;;;14.73;;
7587;SDS011;3835;48.850;8.938;2023-05-25T04:59:08;16.03;;;14.53;;
7587;SDS011;3835;48.850;8.938;2023-05-25T05:01:35;15.50;;;13.90;;
7587;SDS011;3835;48.850;8.938;2023-05-25T05:04:04;17.00;;;14.83;;
7587;SDS011;3835;48.850;8.938;2023-05-25T05:06:31;17.20;;;15.67;;
7587;SDS011;3835;48.850;8.938;2023-05-25T05:08:58;16.20;;;14.93;;
7587;SDS011;3835;48.850;8.938;2023-05-25T05:11:25;17.97;;;16.30;;
7587;SDS011;3835;48.850;8.938;2023-05-25T05:13:54;15.67;;;14.27;;
7587;SDS011;3835;48.850;8.938;2023-05-25T05:16:21;16.53;;;14.80;;
7587;SDS011;3835;48.850;8.938;2023-05-25T05:18:47;17.23;;;15.67;;
7587;SDS011;3835;48.850;8.938;2023-05-25T05:21:14;16.67;;;15.07;;
7587;SDS011;3835;48.850;8.938;2023-05-25T05:23:41;19.00;;;17.33;;
7587;SDS011;3835;48.850;8.938;2023-05-25T05:26:08;16.30;;;15.10;;
7587;SDS011;3835;48.850;8.938;2023-05-25T05:28:35;17.17;;;15.50;;
7587;SDS011;3835;48.850;8.938;2023-05-25T05:31:03;15.77;;;14.47;;
7587;SDS011;3835;48.850;8.938;2023-05-25T05:33:30;16.10;;;14.67;;
7587;SDS011;3835;48.850;8.938;2023-05-25T05:35:57;14.70;;;13.43;;
7587;SDS011;3835;48.850;8.938;2023-05-25T05:38:25;14.73;;;13.40;;
7587;SDS011;3835;48.850;8.938;2023-05-25T05:40:52;17.50;;;16.17;;
7587;SDS011;3835;48.850;8.938;2023-05-25T05:43:18;17.27;;;15.77;;
7587;SDS011;3835;48.850;8.938;2023-05-25T05:45:45;15.97;;;14.40;;
7587;SDS011;3835;48.850;8.938;2023-05-25T05:48:13;16.27;;;14.53;;
7587;SDS011;3835;48.850;8.938;2023-05-25T05:50:40;16.90;;;15.30;;
7587;SDS011;3835;48.850;8.938;2023-05-25T05:53:07;17.17;;;15.57;;
7587;SDS011;3835;48.850;8.938;2023-05-25T05:55:34;16.47;;;14.80;;
7587;SDS011;3835;48.850;8.938;2023-05-25T05:58:01;16.90;;;15.63;;
7587;SDS011;3835;48.850;8.938;2023-05-25T06:00:27;17.07;;;15.67;;
7587;SDS011;3835;48.850;8.938;2023-05-25T06:02:54;19.23;;;17.70;;
7587;SDS011;3835;48.850;8.938;2023-05-25T06:05:22;19.03;;;17.20;;
7587;SDS011;3835;48.850;8.938;2023-05-25T06:07:49;17.53;;;16.23;;
7587;SDS011;3835;48.850;8.938;2023-05-25T06:10:16;18.40;;;16.57;;
7587;SDS011;3835;48.850;8.938;2023-05-25T06:12:43;16.63;;;15.13;;
7587;SDS011;3835;48.850;8.938;2023-05-25T06:15:10;17.60;;;16.00;;
7587;SDS011;3835;48.850;8.938;2023-05-25T06:17:37;17.77;;;16.03;;
7587;SDS011;3835;48.850;8.938;2023-05-25T06:20:04;17.20;;;15.53;;
7587;SDS011;3835;48.850;8.938;2023-05-25T06:22:33;17.93;;;16.33;;
7587;SDS011;3835;48.850;8.938;2023-05-25T06:24:59;16.90;;;15.40;;
7587;SDS011;3835;48.850;8.938;2023-05-25T06:27:26;17.20;;;15.77;;
7587;SDS011;3835;48.850;8.938;2023-05-25T06:29:53;18.47;;;15.70;;
7587;SDS011;3835;48.850;8.938;2023-05-25T06:32:20;17.33;;;15.57;;
7587;SDS011;3835;48.850;8.938;2023-05-25T06:34:47;16.00;;;14.50;;
7587;SDS011;3835;48.850;8.938;2023-05-25T06:37:13;17.33;;;15.63;;
7587;SDS011;3835;48.850;8.938;2023-05-25T06:39:42;18.57;;;16.63;;
7587;SDS011;3835;48.850;8.938;2023-05-25T06:42:08;17.13;;;15.33;;
7587;SDS011;3835;48.850;8.938;2023-05-25T06:44:35;17.87;;;16.13;;
7587;SDS011;3835;48.850;8.938;2023-05-25T06:47:02;19.37;;;17.63;;
7587;SDS011;3835;48.850;8.938;2023-05-25T06:49:29;17.63;;;16.13;;
7587;SDS011;3835;48.850;8.938;2023-05-25T06:51:56;19.77;;;18.50;;
7587;SDS011;3835;48.850;8.938;2023-05-25T06:54:23;20.00;;;18.23;;
7587;SDS011;3835;48.850;8.938;2023-05-25T06:56:52;18.27;;;16.47;;
7587;SDS011;3835;48.850;8.938;2023-05-25T06:59:18;17.43;;;14.50;;
7587;SDS011;3835;48.850;8.938;2023-05-25T07:01:45;17.50;;;15.90;;
7587;SDS011;3835;48.850;8.938;2023-05-25T07:04:12;17.33;;;15.83;;
7587;SDS011;3835;48.850;8.938;2023-05-25T07:06:39;18.57;;;17.07;;
7587;SDS011;3835;48.850;8.938;2023-05-25T07:09:06;19.30;;;17.07;;
7587;SDS011;3835;48.850;8.938;2023-05-25T07:11:32;24.77;;;22.43;;
7587;SDS011;3835;48.850;8.938;2023-05-25T07:14:00;20.50;;;18.47;;
7587;SDS011;3835;48.850;8.938;2023-05-25T07:16:27;18.40;;;16.47;;
7587;SDS011;3835;48.850;8.938;2023-05-25T07:18:55;19.20;;;17.53;;
7587;SDS011;3835;48.850;8.938;2023-05-25T07:21:22;20.50;;;18.43;;
7587;SDS011;3835;48.850;8.938;2023-05-25T07:23:49;19.43;;;17.47;;
7587;SDS011;3835;48.850;8.938;2023-05-25T07:26:16;24.70;;;22.83;;
7587;SDS011;3835;48.850;8.938;2023-05-25T07:28:45;19.33;;;17.57;;
7587;SDS011;3835;48.850;8.938;2023-05-25T07:31:13;18.40;;;16.57;;
7587;SDS011;3835;48.850;8.938;2023-05-25T07:33:40;18.40;;;16.50;;
7587;SDS011;3835;48.850;8.938;2023-05-25T07:36:07;16.43;;;14.80;;
7587;SDS011;3835;48.850;8.938;2023-05-25T07:38:34;19.17;;;17.43;;
7587;SDS011;3835;48.850;8.938;2023-05-25T07:41:01;17.83;;;15.93;;
7587;SDS011;3835;48.850;8.938;2023-05-25T07:43:28;17.73;;;15.97;;
7587;SDS011;3835;48.850;8.938;2023-05-25T07:45:55;18.00;;;16.37;;
7587;SDS011;3835;48.850;8.938;2023-05-25T07:48:23;21.50;;;19.57;;
7587;SDS011;3835;48.850;8.938;2023-05-25T07:50:50;18.57;;;16.57;;
7587;SDS011;3835;48.850;8.938;2023-05-25T07:53:17;18.53;;;16.90;;
7587;SDS011;3835;48.850;8.938;2023-05-25T07:55:44;18.83;;;17.07;;
7587;SDS011;3835;48.850;8.938;2023-05-25T07:58:11;18.50;;;16.60;;
7587;SDS011;3835;48.850;8.938;2023-05-25T08:00:37;19.60;;;17.97;;
7587;SDS011;3835;48.850;8.938;2023-05-25T08:03:04;17.60;;;16.10;;
7587;SDS011;3835;48.850;8.938;2023-05-25T08:05:32;20.83;;;18.83;;
7587;SDS011;3835;48.850;8.938;2023-05-25T08:07:59;17.53;;;16.10;;
7587;SDS011;3835;48.850;8.938;2023-05-25T08:10:26;19.27;;;17.27;;
7587;SDS011;3835;48.850;8.938;2023-05-25T08:12:56;20.57;;;18.57;;
7587;SDS011;3835;48.850;8.938;2023-05-25T08:15:22;23.27;;;21.67;;
7587;SDS011;3835;48.850;8.938;2023-05-25T08:17:50;23.13;;;20.63;;
7587;SDS011;3835;48.850;8.938;2023-05-25T08:20:17;19.30;;;17.90;;
7587;SDS011;3835;48.850;8.938;2023-05-25T08:22:45;21.37;;;19.70;;
7587;SDS011;3835;48.850;8.938;2023-05-25T08:25:12;20.10;;;18.33;;
7587;SDS011;3835;48.850;8.938;2023-05-25T08:27:39;18.57;;;16.93;;
7587;SDS011;3835;48.850;8.938;2023-05-25T08:30:06;18.73;;;17.23;;
7587;SDS011;3835;48.850;8.938;2023-05-25T08:32:33;19.90;;;18.10;;
7587;SDS011;3835;48.850;8.938;2023-05-25T08:35:00;23.50;;;21.70;;
7587;SDS011;3835;48.850;8.938;2023-05-25T08:37:27;23.40;;;21.63;;
7587;SDS011;3835;48.850;8.938;2023-05-25T08:39:55;21.70;;;19.83;;
7587;SDS011;3835;48.850;8.938;2023-05-25T08:42:24;18.87;;;17.20;;
7587;SDS011;3835;48.850;8.938;2023-05-25T08:44:51;21.23;;;19.13;;
7587;SDS011;3835;48.850;8.938;2023-05-25T08:47:18;32.77;;;30.20;;
7587;SDS011;3835;48.850;8.938;2023-05-25T08:49:48;20.20;;;18.20;;
7587;SDS011;3835;48.850;8.938;2023-05-25T08:52:18;19.90;;;18.40;;
7587;SDS011;3835;48.850;8.938;2023-05-25T08:54:47;19.07;;;17.53;;
7587;SDS011;3835;48.850;8.938;2023-05-25T08:57:22;21.20;;;19.43;;
7587;SDS011;3835;48.850;8.938;2023-05-25T08:59:55;19.20;;;17.77;;
7587;SDS011;3835;48.850;8.938;2023-05-25T09:02:30;20.93;;;19.17;;
7587;SDS011;3835;48.850;8.938;2023-05-25T09:05:00;22.93;;;21.03;;
7587;SDS011;3835;48.850;8.938;2023-05-25T09:07:28;21.03;;;19.20;;
7587;SDS011;3835;48.850;8.938;2023-05-25T09:09:55;20.43;;;18.63;;
7587;SDS011;3835;48.850;8.938;2023-05-25T09:12:26;20.30;;;18.77;;
7587;SDS011;3835;48.850;8.938;2023-05-25T09:14:55;21.60;;;19.73;;
7587;SDS011;3835;48.850;8.938;2023-05-25T09:17:22;22.10;;;20.23;;
7587;SDS011;3835;48.850;8.938;2023-05-25T09:19:49;21.57;;;19.43;;
7587;SDS011;3835;48.850;8.938;2023-05-25T09:22:16;20.27;;;18.20;;
7587;SDS011;3835;48.850;8.938;2023-05-25T09:24:43;19.43;;;17.67;;
7587;SDS011;3835;48.850;8.938;2023-05-25T09:27:10;19.77;;;18.10;;
7587;SDS011;3835;48.850;8.938;2023-05-25T09:29:39;20.83;;;18.93;;
7587;SDS011;3835;48.850;8.938;2023-05-25T09:32:06;20.20;;;18.60;;
7587;SDS011;3835;48.850;8.938;2023-05-25T09:34:33;21.27;;;19.10;;
7587;SDS011;3835;48.850;8.938;2023-05-25T09:37:00;22.23;;;20.47;;
7587;SDS011;3835;48.850;8.938;2023-05-25T09:39:29;20.93;;;18.87;;
7587;SDS011;3835;48.850;8.938;2023-05-25T09:41:55;21.67;;;19.77;;
7587;SDS011;3835;48.850;8.938;2023-05-25T09:44:22;19.43;;;17.63;;
7587;SDS011;3835;48.850;8.938;2023-05-25T09:46:50;18.50;;;16.70;;
7587;SDS011;3835;48.850;8.938;2023-05-25T09:49:17;21.10;;;18.97;;
7587;SDS011;3835;48.850;8.938;2023-05-25T09:51:44;22.63;;;20.77;;
7587;SDS011;3835;48.850;8.938;2023-05-25T09:54:12;22.67;;;20.67;;
7587;SDS011;3835;48.850;8.938;2023-05-25T09:56:39;21.93;;;20.13;;
7587;SDS011;3835;48.850;8.938;2023-05-25T09:59:06;21.43;;;19.80;;
7587;SDS011;3835;48.850;8.938;2023-05-25T10:01:33;18.37;;;16.67;;
7587;SDS011;3835;48.850;8.938;2023-05-25T10:04:02;18.90;;;17.40;;
7587;SDS011;3835;48.850;8.938;2023-05-25T10:06:30;20.47;;;18.90;;
7587;SDS011;3835;48.850;8.938;2023-05-25T10:08:59;21.63;;;19.97;;
7587;SDS011;3835;48.850;8.938;2023-05-25T10:11:26;23.17;;;21.03;;
7587;SDS011;3835;48.850;8.938;2023-05-25T10:13:54;22.07;;;20.27;;
7587;SDS011;3835;48.850;8.938;2023-05-25T10:16:23;21.00;;;19.17;;
7587;SDS011;3835;48.850;8.938;2023-05-25T10:18:53;19.67;;;17.93;;
7587;SDS011;3835;48.850;8.938;2023-05-25T10:21:28;21.30;;;19.73;;
7587;SDS011;3835;48.850;8.938;2023-05-25T10:23:57;20.70;;;18.77;;
7587;SDS011;3835;48.850;8.938;2023-05-25T10:26:28;20.80;;;18.90;;
7587;SDS011;3835;48.850;8.938;2023-05-25T10:29:00;22.23;;;20.30;;
7587;SDS011;3835;48.850;8.938;2023-05-25T10:31:29;19.93;;;18.40;;
7587;SDS011;3835;48.850;8.938;2023-05-25T10:33:58;21.00;;;19.33;;
7587;SDS011;3835;48.850;8.938;2023-05-25T10:36:25;20.33;;;18.53;;
7587;SDS011;3835;48.850;8.938;2023-05-25T10:38:54;21.97;;;20.23;;
7587;SDS011;3835;48.850;8.938;2023-05-25T10:41:22;19.87;;;17.97;;
7587;SDS011;3835;48.850;8.938;2023-05-25T10:43:48;20.23;;;18.40;;
7587;SDS011;3835;48.850;8.938;2023-05-25T10:46:17;22.17;;;20.27;;
7587;SDS011;3835;48.850;8.938;2023-05-25T10:48:44;20.93;;;18.80;;
7587;SDS011;3835;48.850;8.938;2023-05-25T10:51:12;19.43;;;17.60;;
7587;SDS011;3835;48.850;8.938;2023-05-25T10:53:43;24.10;;;22.13;;
7587;SDS011;3835;48.850;8.938;2023-05-25T10:56:11;18.83;;;17.43;;
7587;SDS011;3835;48.850;8.938;2023-05-25T10:58:39;22.20;;;20.30;;
7587;SDS011;3835;48.850;8.938;2023-05-25T11:01:09;19.53;;;17.93;;
7587;SDS011;3835;48.850;8.938;2023-05-25T11:03:49;18.53;;;16.97;;
7587;SDS011;3835;48.850;8.938;2023-05-25T11:06:21;18.87;;;17.23;;
7587;SDS011;3835;48.850;8.938;2023-05-25T11:08:51;19.43;;;18.03;;
7587;SDS011;3835;48.850;8.938;2023-05-25T11:11:20;19.07;;;17.20;;
7587;SDS011;3835;48.850;8.938;2023-05-25T11:13:47;18.53;;;17.00;;
7587;SDS011;3835;48.850;8.938;2023-05-25T11:16:18;19.53;;;17.70;;
7587;SDS011;3835;48.850;8.938;2023-05-25T11:18:49;19.70;;;17.93;;
7587;SDS011;3835;48.850;8.938;2023-05-25T11:21:22;17.00;;;15.43;;
7587;SDS011;3835;48.850;8.938;2023-05-25T11:24:10;17.60;;;16.00;;
7587;SDS011;3835;48.850;8.938;2023-05-25T11:26:51;18.33;;;16.60;;
7587;SDS011;3835;48.850;8.938;2023-05-25T11:29:19;19.27;;;17.83;;
7587;SDS011;3835;48.850;8.938;2023-05-25T11:31:50;17.87;;;16.37;;
7587;SDS011;3835;48.850;8.938;2023-05-25T11:34:19;18.07;;;16.77;;
7587;SDS011;3835;48.850;8.938;2023-05-25T11:36:51;17.77;;;16.40;;
7587;SDS011;3835;48.850;8.938;2023-05-25T11:39:20;20.47;;;18.83;;
7587;SDS011;3835;48.850;8.938;2023-05-25T11:41:48;18.30;;;16.60;;
7587;SDS011;3835;48.850;8.938;2023-05-25T11:44:24;17.50;;;16.23;;
7587;SDS011;3835;48.850;8.938;2023-05-25T11:46:52;16.97;;;15.67;;
7587;SDS011;3835;48.850;8.938;2023-05-25T11:49:21;18.77;;;17.07;;
7587;SDS011;3835;48.850;8.938;2023-05-25T11:51:48;18.60;;;17.10;;
7587;SDS011;3835;48.850;8.938;2023-05-25T11:54:23;19.87;;;18.37;;
7587;SDS011;3835;48.850;8.938;2023-05-25T11:56:50;18.50;;;16.90;;
7587;SDS011;3835;48.850;8.938;2023-05-25T11:59:20;17.50;;;15.90;;
7587;SDS011;3835;48.850;8.938;2023-05-25T12:01:57;19.27;;;17.67;;
7587;SDS011;3835;48.850;8.938;2023-05-25T12:04:25;19.53;;;17.80;;
7587;SDS011;3835;48.850;8.938;2023-05-25T12:06:51;17.53;;;16.20;;
7587;SDS011;3835;48.850;8.938;2023-05-25T12:09:27;16.57;;;15.03;;
7587;SDS011;3835;48.850;8.938;2023-05-25T12:11:54;18.20;;;16.57;;
7587;SDS011;3835;48.850;8.938;2023-05-25T12:14:20;16.17;;;14.77;;
7587;SDS011;3835;48.850;8.938;2023-05-25T12:16:48;16.67;;;15.43;;
7587;SDS011;3835;48.850;8.938;2023-05-25T12:19:15;16.97;;;15.77;;
7587;SDS011;3835;48.850;8.938;2023-05-25T12:21:43;17.47;;;15.80;;
7587;SDS011;3835;48.850;8.938;2023-05-25T12:24:11;17.50;;;16.07;;
7587;SDS011;3835;48.850;8.938;2023-05-25T12:26:50;16.70;;;15.30;;
7587;SDS011;3835;48.850;8.938;2023-05-25T12:29:21;17.57;;;16.30;;
7587;SDS011;3835;48.850;8.938;2023-05-25T12:31:48;16.73;;;15.53;;
7587;SDS011;3835;48.850;8.938;2023-05-25T12:34:16;16.97;;;15.70;;
7587;SDS011;3835;48.850;8.938;2023-05-25T12:36:44;16.50;;;15.07;;
7587;SDS011;3835;48.850;8.938;2023-05-25T12:39:13;16.50;;;15.00;;
7587;SDS011;3835;48.850;8.938;2023-05-25T12:41:41;17.23;;;16.13;;
7587;SDS011;3835;48.850;8.938;2023-05-25T12:44:17;15.33;;;14.33;;
7587;SDS011;3835;48.850;8.938;2023-05-25T12:46:45;17.83;;;16.23;;
7587;SDS011;3835;48.850;8.938;2023-05-25T12:49:25;17.20;;;15.90;;
7587;SDS011;3835;48.850;8.938;2023-05-25T12:51:53;14.47;;;13.37;;
7587;SDS011;3835;48.850;8.938;2023-05-25T12:54:33;16.27;;;15.07;;
7587;SDS011;3835;48.850;8.938;2023-05-25T12:57:02;17.63;;;16.13;;
7587;SDS011;3835;48.850;8.938;2023-05-25T12:59:31;16.60;;;15.00;;
7587;SDS011;3835;48.850;8.938;2023-05-25T13:01:58;17.10;;;15.80;;
7587;SDS011;3835;48.850;8.938;2023-05-25T13:04:25;16.30;;;15.00;;
7587;SDS011;3835;48.850;8.938;2023-05-25T13:06:52;15.17;;;14.00;;
7587;SDS011;3835;48.850;8.938;2023-05-25T13:09:21;16.63;;;15.03;;
7587;SDS011;3835;48.850;8.938;2023-05-25T13:11:49;16.50;;;15.27;;
7587;SDS011;3835;48.850;8.938;2023-05-25T13:14:17;15.97;;;14.73;;
7587;SDS011;3835;48.850;8.938;2023-05-25T13:16:44;16.00;;;14.97;;
7587;SDS011;3835;48.850;8.938;2023-05-25T13:19:11;16.67;;;15.37;;
7587;SDS011;3835;48.850;8.938;2023-05-25T13:21:38;16.77;;;15.53;;
7587;SDS011;3835;48.850;8.938;2023-05-25T13:24:05;15.87;;;14.70;;
7587;SDS011;3835;48.850;8.938;2023-05-25T13:26:32;20.30;;;18.90;;
7587;SDS011;3835;48.850;8.938;2023-05-25T13:28:59;17.50;;;16.13;;
7587;SDS011;3835;48.850;8.938;2023-05-25T13:31:27;16.03;;;14.63;;
7587;SDS011;3835;48.850;8.938;2023-05-25T13:33:55;17.03;;;15.27;;
7587;SDS011;3835;48.850;8.938;2023-05-25T13:36:22;18.00;;;16.40;;
7587;SDS011;3835;48.850;8.938;2023-05-25T13:38:50;15.13;;;13.97;;
7587;SDS011;3835;48.850;8.938;2023-05-25T13:41:17;17.37;;;16.00;;
7587;SDS011;3835;48.850;8.938;2023-05-25T13:43:43;16.37;;;15.17;;
7587;SDS011;3835;48.850;8.938;2023-05-25T13:46:11;16.17;;;14.97;;
7587;SDS011;3835;48.850;8.938;2023-05-25T13:48:39;18.00;;;16.60;;
7587;SDS011;3835;48.850;8.938;2023-05-25T13:51:11;17.50;;;15.87;;
7587;SDS011;3835;48.850;8.938;2023-05-25T13:53:38;16.10;;;14.53;;
7587;SDS011;3835;48.850;8.938;2023-05-25T13:56:05;15.70;;;14.20;;
7587;SDS011;3835;48.850;8.938;2023-05-25T13:58:32;16.43;;;14.80;;
7587;SDS011;3835;48.850;8.938;2023-05-25T14:00:58;14.93;;;13.83;;
7587;SDS011;3835;48.850;8.938;2023-05-25T14:03:25;15.17;;;13.97;;
7587;SDS011;3835;48.850;8.938;2023-05-25T14:05:53;15.33;;;14.10;;
7587;SDS011;3835;48.850;8.938;2023-05-25T14:08:20;17.10;;;15.90;;
7587;SDS011;3835;48.850;8.938;2023-05-25T14:10:47;17.20;;;15.73;;
7587;SDS011;3835;48.850;8.938;2023-05-25T14:13:14;17.13;;;15.93;;
7587;SDS011;3835;48.850;8.938;2023-05-25T14:15:40;14.60;;;13.40;;
7587;SDS011;3835;48.850;8.938;2023-05-25T14:18:08;16.03;;;14.63;;
7587;SDS011;3835;48.850;8.938;2023-05-25T14:20:35;17.60;;;16.23;;
7587;SDS011;3835;48.850;8.938;2023-05-25T14:23:06;15.60;;;14.37;;
7587;SDS011;3835;48.850;8.938;2023-05-25T14:25:33;16.97;;;15.23;;
7587;SDS011;3835;48.850;8.938;2023-05-25T14:27:59;18.40;;;17.00;;
7587;SDS011;3835;48.850;8.938;2023-05-25T14:30:26;15.20;;;14.10;;
7587;SDS011;3835;48.850;8.938;2023-05-25T14:32:53;16.00;;;14.30;;
7587;SDS011;3835;48.850;8.938;2023-05-25T14:35:20;16.90;;;15.57;;
7587;SDS011;3835;48.850;8.938;2023-05-25T14:37:47;18.57;;;17.33;;
7587;SDS011;3835;48.850;8.938;2023-05-25T14:40:16;17.80;;;16.07;;
7587;SDS011;3835;48.850;8.938;2023-05-25T14:42:43;17.73;;;16.33;;
7587;SDS011;3835;48.850;8.938;2023-05-25T14:45:10;17.77;;;16.37;;
7587;SDS011;3835;48.850;8.938;2023-05-25T14:47:37;16.23;;;14.87;;
7587;SDS011;3835;48.850;8.938;2023-05-25T14:50:05;17.83;;;16.53;;
7587;SDS011;3835;48.850;8.938;2023-05-25T14:52:32;15.40;;;14.10;;
7587;SDS011;3835;48.850;8.938;2023-05-25T14:55:00;15.33;;;14.17;;
7587;SDS011;3835;48.850;8.938;2023-05-25T14:57:28;17.73;;;16.50;;